createdAt,value
2018-12-12T00:01:09.486Z,102476.08
2018-12-12T00:03:39.326Z,102477.72
2018-12-12T00:06:08.276Z,102480.70
2018-12-12T00:08:37.374Z,102476.38
2018-12-12T00:11:06.426Z,102479.34
2018-12-12T00:13:35.634Z,102474.23
2018-12-12T00:16:04.628Z,102474.49
2018-12-12T00:18:33.517Z,102470.19
2018-12-12T00:21:02.635Z,102477.47
2018-12-12T00:23:31.532Z,102471.26
2018-12-12T00:26:00.488Z,102476.66
2018-12-12T00:28:29.465Z,102472.87
2018-12-12T00:30:58.570Z,102475.29
2018-12-12T00:33:27.511Z,102475.03
2018-12-12T00:35:56.444Z,102478.81
2018-12-12T00:38:26.062Z,102482.86
2018-12-12T00:40:54.993Z,102489.34
2018-12-12T00:43:23.919Z,102492.86
2018-12-12T00:45:53.077Z,102493.40
2018-12-12T00:48:22.361Z,102495.03
2018-12-12T00:50:51.344Z,102491.50
2018-12-12T00:53:20.336Z,102493.39
2018-12-12T00:55:49.408Z,102495.84
2018-12-12T00:58:18.384Z,102492.88
2018-12-12T01:00:47.554Z,102494.22
2018-12-12T01:03:16.525Z,102500.97
2018-12-12T01:05:45.479Z,102497.98
2018-12-12T01:08:14.363Z,102495.55
2018-12-12T01:10:43.600Z,102497.19
2018-12-12T01:13:12.679Z,102495.28
2018-12-12T01:15:41.573Z,102496.11
2018-12-12T01:18:10.627Z,102502.84
2018-12-12T01:20:39.664Z,102502.57
2018-12-12T01:23:09.140Z,102499.08
2018-12-12T01:25:38.135Z,102498.52
2018-12-12T01:28:07.054Z,102503.39
2018-12-12T01:30:35.879Z,102505.00
2018-12-12T01:33:05.467Z,102500.13
2018-12-12T01:35:34.610Z,102501.77
2018-12-12T01:38:03.583Z,102501.48
2018-12-12T01:40:32.487Z,102502.83
2018-12-12T01:43:01.386Z,102508.77
2018-12-12T01:45:30.271Z,102503.11
2018-12-12T01:47:59.410Z,102503.92
2018-12-12T01:50:28.349Z,102508.78
2018-12-12T01:52:57.582Z,102511.48
2018-12-12T01:55:26.481Z,102511.21
2018-12-12T01:57:55.535Z,102514.73
2018-12-12T02:00:24.579Z,102517.41
2018-12-12T02:02:53.481Z,102522.57
2018-12-12T02:05:22.367Z,102517.96
2018-12-12T02:07:51.850Z,102520.38
2018-12-12T02:10:20.872Z,102518.79
2018-12-12T02:13:06.917Z,102515.81
2018-12-12T02:15:35.842Z,102521.20
2018-12-12T02:18:05.626Z,102520.41
2018-12-12T02:20:34.598Z,102521.75
2018-12-12T02:23:03.638Z,102524.72
2018-12-12T02:25:32.833Z,102527.42
2018-12-12T02:28:01.737Z,102530.64
2018-12-12T02:30:30.700Z,102529.58
2018-12-12T02:32:59.950Z,102536.08
2018-12-12T02:35:28.992Z,102532.56
2018-12-12T02:37:57.868Z,102530.39
2018-12-12T02:40:26.892Z,102532.55
2018-12-12T02:42:55.798Z,102528.25
2018-12-12T02:45:24.765Z,102536.07
2018-12-12T02:47:53.731Z,102532.27
2018-12-12T02:50:23.128Z,102539.30
2018-12-12T02:52:52.024Z,102538.73
2018-12-12T02:55:20.935Z,102536.55
2018-12-12T02:57:49.939Z,102539.84
2018-12-12T03:00:18.957Z,102545.48
2018-12-12T03:02:47.909Z,102539.02
2018-12-12T03:05:17.979Z,102546.03
2018-12-12T03:07:47.150Z,102546.03
2018-12-12T03:10:16.103Z,102551.46
2018-12-12T03:12:45.021Z,102543.08
2018-12-12T03:15:14.353Z,102548.20
2018-12-12T03:17:43.269Z,102547.69
2018-12-12T03:20:12.279Z,102544.44
2018-12-12T03:22:41.208Z,102538.48
2018-12-12T03:25:10.314Z,102539.02
2018-12-12T03:27:39.726Z,102541.75
2018-12-12T03:30:08.943Z,102543.08
2018-12-12T03:32:37.903Z,102543.62
2018-12-12T03:35:06.944Z,102544.70
2018-12-12T03:37:35.954Z,102547.95
2018-12-12T03:40:06.559Z,102551.72
2018-12-12T03:42:35.929Z,102551.99
2018-12-12T03:45:06.966Z,102559.56
2018-12-12T03:47:35.974Z,102558.20
2018-12-12T03:50:05.631Z,102561.70
2018-12-12T03:52:34.671Z,102565.20
2018-12-12T03:55:03.989Z,102558.44
2018-12-12T03:57:32.965Z,102561.41
2018-12-12T04:00:01.896Z,102555.45
2018-12-12T04:02:30.912Z,102554.15
2018-12-12T04:04:59.835Z,102557.92
2018-12-12T04:07:28.786Z,102556.84
2018-12-12T04:09:57.681Z,102570.66
2018-12-12T04:12:26.647Z,102565.23
2018-12-12T04:14:55.926Z,102566.84
2018-12-12T04:17:24.899Z,102576.28
2018-12-12T04:19:53.797Z,102574.12
2018-12-12T04:22:23.244Z,102578.49
2018-12-12T04:24:52.618Z,102574.14
2018-12-12T04:27:21.747Z,102581.46
2018-12-12T04:29:50.963Z,102579.02
2018-12-12T04:32:19.991Z,102580.64
2018-12-12T04:34:48.875Z,102577.40
2018-12-12T04:37:17.829Z,102584.41
2018-12-12T04:39:46.835Z,102581.71
2018-12-12T04:42:15.886Z,102581.71
2018-12-12T04:44:44.956Z,102578.22
2018-12-12T04:47:13.849Z,102588.45
2018-12-12T04:49:42.794Z,102584.97
2018-12-12T04:52:11.898Z,102579.28
2018-12-12T04:54:41.431Z,102581.44
2018-12-12T04:57:10.563Z,102581.67
2018-12-12T04:59:40.183Z,102580.81
2018-12-12T05:02:09.297Z,102572.20
2018-12-12T05:04:39.146Z,102587.92
2018-12-12T05:07:08.104Z,102586.80
2018-12-12T05:09:37.450Z,102582.23
2018-12-12T05:12:06.470Z,102588.42
2018-12-12T05:14:35.539Z,102597.25
2018-12-12T05:17:04.822Z,102591.35
2018-12-12T05:19:33.886Z,102594.92
2018-12-12T05:22:03.454Z,102603.57
2018-12-12T05:24:32.491Z,102594.66
2018-12-12T05:27:01.390Z,102604.39
2018-12-12T05:29:30.509Z,102608.42
2018-12-12T05:31:59.423Z,102614.10
2018-12-12T05:34:28.302Z,102615.69
2018-12-12T05:36:57.939Z,102617.05
2018-12-12T05:39:27.902Z,102610.03
2018-12-12T05:41:56.855Z,102621.31
2018-12-12T05:44:25.889Z,102619.72
2018-12-12T05:46:54.884Z,102621.66
2018-12-12T05:49:23.889Z,102627.06
2018-12-12T05:51:53.663Z,102621.92
2018-12-12T05:54:22.629Z,102627.31
2018-12-12T05:56:52.420Z,102625.97
2018-12-12T05:59:21.680Z,102627.09
2018-12-12T06:01:50.634Z,102635.73
2018-12-12T06:04:19.735Z,102628.11
2018-12-12T06:06:48.704Z,102625.98
2018-12-12T06:09:17.657Z,102629.23
2018-12-12T06:11:47.209Z,102631.95
2018-12-12T06:14:16.280Z,102636.75
2018-12-12T06:16:45.243Z,102640.02
2018-12-12T06:19:14.642Z,102641.38
2018-12-12T06:21:43.640Z,102649.73
2018-12-12T06:24:12.756Z,102638.39
2018-12-12T06:26:42.218Z,102652.09
2018-12-12T06:29:11.257Z,102648.62
2018-12-12T06:31:40.218Z,102653.25
2018-12-12T06:34:09.112Z,102655.05
2018-12-12T06:36:38.053Z,102655.60
2018-12-12T06:39:08.524Z,102659.69
2018-12-12T06:41:38.115Z,102661.88
2018-12-12T06:44:07.056Z,102660.23
2018-12-12T06:46:36.015Z,102657.02
2018-12-12T06:49:05.312Z,102669.12
2018-12-12T06:51:34.322Z,102666.45
2018-12-12T06:54:03.289Z,102668.89
2018-12-12T06:56:32.299Z,102675.64
2018-12-12T06:59:01.301Z,102674.05
2018-12-12T07:01:30.312Z,102677.31
2018-12-12T07:03:59.224Z,102679.99
2018-12-12T07:06:28.255Z,102685.60
2018-12-12T07:08:57.209Z,102685.06
2018-12-12T07:11:26.251Z,102684.84
2018-12-12T07:13:55.147Z,102690.42
2018-12-12T07:16:24.138Z,102683.42
2018-12-12T07:18:53.205Z,102699.14
2018-12-12T07:21:22.118Z,102702.92
2018-12-12T07:23:51.042Z,102703.16
2018-12-12T07:26:19.991Z,102696.45
2018-12-12T07:28:48.851Z,102700.50
2018-12-12T07:31:17.984Z,102702.92
2018-12-12T07:33:46.874Z,102701.27
2018-12-12T07:36:15.905Z,102704.98
2018-12-12T07:38:45.121Z,102699.36
2018-12-12T07:41:14.108Z,102700.17
2018-12-12T07:43:43.055Z,102699.36
2018-12-12T07:46:12.076Z,102705.54
2018-12-12T07:48:41.099Z,102701.54
2018-12-12T07:51:10.335Z,102709.34
2018-12-12T07:53:39.275Z,102710.14
2018-12-12T07:56:08.292Z,102713.90
2018-12-12T07:58:37.242Z,102715.29
2018-12-12T08:01:06.204Z,102709.61
2018-12-12T08:03:35.162Z,102713.48
2018-12-12T08:06:04.212Z,102717.48
2018-12-12T08:08:33.755Z,102714.47
2018-12-12T08:11:02.723Z,102712.65
2018-12-12T08:13:31.736Z,102714.28
2018-12-12T08:16:01.171Z,102720.69
2018-12-12T08:18:30.160Z,102725.58
2018-12-12T08:20:59.118Z,102724.20
2018-12-12T08:23:28.921Z,102719.69
2018-12-12T08:25:57.901Z,102727.30
2018-12-12T08:28:27.137Z,102722.65
2018-12-12T08:30:56.011Z,102728.63
2018-12-12T08:33:25.052Z,102733.74
2018-12-12T08:35:54.423Z,102738.59
2018-12-12T08:38:24.045Z,102735.92
2018-12-12T08:40:52.973Z,102734.61
2018-12-12T08:43:21.910Z,102740.48
2018-12-12T08:45:51.287Z,102736.73
2018-12-12T08:48:20.232Z,102737.33
2018-12-12T08:50:49.534Z,102745.41
2018-12-12T08:53:18.727Z,102743.22
2018-12-12T08:55:47.585Z,102750.02
2018-12-12T08:58:16.614Z,102748.61
2018-12-12T09:00:45.964Z,102750.34
2018-12-12T09:03:17.796Z,102749.16
2018-12-12T09:05:46.431Z,102749.71
2018-12-12T09:08:15.379Z,102753.75
2018-12-12T09:10:44.749Z,102759.17
2018-12-12T09:13:15.412Z,102758.95
2018-12-12T09:15:44.578Z,102765.73
2018-12-12T09:18:13.509Z,102763.78
2018-12-12T09:20:42.447Z,102767.89
2018-12-12T09:23:11.878Z,102764.38
2018-12-12T09:25:40.839Z,102767.38
2018-12-12T09:28:09.767Z,102768.39
2018-12-12T09:30:38.790Z,102778.45
2018-12-12T09:33:07.809Z,102775.47
2018-12-12T09:35:36.786Z,102778.20
2018-12-12T09:38:05.717Z,102786.03
2018-12-12T09:40:34.853Z,102784.73
2018-12-12T09:43:03.789Z,102785.55
2018-12-12T09:45:32.702Z,102786.34
2018-12-12T09:48:01.790Z,102789.53
2018-12-12T09:50:30.875Z,102786.08
2018-12-12T09:52:59.822Z,102790.69
2018-12-12T09:55:28.768Z,102779.35
2018-12-12T09:57:57.683Z,102789.08
2018-12-12T10:00:26.705Z,102788.01
2018-12-12T10:02:57.360Z,102790.97
2018-12-12T10:05:26.299Z,102789.63
2018-12-12T10:07:55.168Z,102792.61
2018-12-12T10:10:24.488Z,102798.25
2018-12-12T10:12:53.711Z,102797.70
2018-12-12T10:15:22.710Z,102792.59
2018-12-12T10:17:51.610Z,102796.67
2018-12-12T10:20:20.566Z,102794.50
2018-12-12T10:22:49.423Z,102786.66
2018-12-12T10:25:18.435Z,102783.40
2018-12-12T10:27:47.314Z,102779.08
2018-12-12T10:30:16.286Z,102785.03
2018-12-12T10:32:45.152Z,102783.70
2018-12-12T10:35:14.633Z,102788.56
2018-12-12T10:37:43.675Z,102790.73
2018-12-12T10:40:12.865Z,102791.26
2018-12-12T10:42:41.768Z,102790.46
2018-12-12T10:45:11.070Z,102787.72
2018-12-12T10:47:39.955Z,102779.63
2018-12-12T10:50:10.125Z,102780.44
2018-12-12T10:52:39.473Z,102784.22
2018-12-12T10:55:08.786Z,102785.30
2018-12-12T10:57:38.067Z,102782.05
2018-12-12T11:00:12.874Z,102779.06
2018-12-12T11:02:47.692Z,102783.66
2018-12-12T11:05:17.406Z,102784.20
2018-12-12T11:07:47.234Z,102772.58
2018-12-12T11:10:16.224Z,102780.97
2018-12-12T11:12:45.266Z,102774.23
2018-12-12T11:15:14.277Z,102780.45
2018-12-12T11:17:43.190Z,102775.84
2018-12-12T11:20:12.227Z,102778.80
2018-12-12T11:22:41.489Z,102775.56
2018-12-12T11:25:10.563Z,102781.77
2018-12-12T11:27:40.223Z,102779.08
2018-12-12T11:30:09.417Z,102772.31
2018-12-12T11:32:38.453Z,102770.66
2018-12-12T11:35:07.487Z,102766.02
2018-12-12T11:37:36.628Z,102766.81
2018-12-12T11:40:06.835Z,102775.80
2018-12-12T11:42:37.061Z,102772.87
2018-12-12T11:45:06.843Z,102776.08
2018-12-12T11:47:39.202Z,102776.91
2018-12-12T11:50:09.170Z,102777.19
2018-12-12T11:52:38.277Z,102766.84
2018-12-12T11:55:07.230Z,102773.40
2018-12-12T11:57:37.307Z,102764.44
2018-12-12T12:00:07.326Z,102766.30
2018-12-12T12:02:36.980Z,102770.38
2018-12-12T12:05:07.031Z,102761.40
2018-12-12T12:07:36.044Z,102766.33
2018-12-12T12:10:08.290Z,102764.16
2018-12-12T12:12:37.812Z,102766.08
2018-12-12T12:15:08.444Z,102767.38
2018-12-12T12:17:37.384Z,102762.77
2018-12-12T12:20:09.099Z,102762.79
2018-12-12T12:22:39.135Z,102757.62
2018-12-12T12:25:09.252Z,102748.70
2018-12-12T12:27:39.142Z,102751.69
2018-12-12T12:30:09.296Z,102759.87
2018-12-12T12:32:39.378Z,102754.96
2018-12-12T12:35:09.473Z,102747.93
2018-12-12T12:37:38.903Z,102751.92
2018-12-12T12:40:08.422Z,102754.11
2018-12-12T12:42:37.542Z,102754.91
2018-12-12T12:45:07.003Z,102755.70
2018-12-12T12:47:36.098Z,102760.04
2018-12-12T12:50:05.984Z,102754.12
2018-12-12T12:52:35.238Z,102753.62
2018-12-12T12:55:05.087Z,102753.34
2018-12-12T12:57:34.654Z,102739.58
2018-12-12T13:00:04.740Z,102752.02
2018-12-12T13:02:34.091Z,102746.31
2018-12-12T13:05:05.138Z,102749.58
2018-12-12T13:07:34.317Z,102746.61
2018-12-12T13:10:04.437Z,102746.06
2018-12-12T13:12:34.265Z,102749.30
2018-12-12T13:15:05.299Z,102745.53
2018-12-12T13:17:34.390Z,102743.62
2018-12-12T13:20:05.364Z,102742.25
2018-12-12T13:22:34.569Z,102739.84
2018-12-12T13:25:06.040Z,102738.52
2018-12-12T13:27:35.525Z,102734.45
2018-12-12T13:30:06.327Z,102733.11
2018-12-12T13:32:35.499Z,102733.66
2018-12-12T13:35:04.827Z,102736.34
2018-12-12T13:37:33.766Z,102734.19
2018-12-12T13:40:03.195Z,102737.70
2018-12-12T13:42:32.471Z,102729.84
2018-12-12T13:45:01.809Z,102728.23
2018-12-12T13:47:30.803Z,102730.94
2018-12-12T13:49:59.947Z,102725.78
2018-12-12T13:52:29.158Z,102736.60
2018-12-12T13:54:58.929Z,102739.05
2018-12-12T13:57:28.420Z,102732.81
2018-12-12T13:59:57.658Z,102734.47
2018-12-12T14:02:26.606Z,102729.84
2018-12-12T14:04:55.494Z,102737.97
2018-12-12T14:07:24.537Z,102739.83
2018-12-12T14:09:53.848Z,102738.20
2018-12-12T14:12:22.826Z,102736.28
2018-12-12T14:14:52.030Z,102734.13
2018-12-12T14:17:20.931Z,102727.12
2018-12-12T14:19:49.858Z,102724.13
2018-12-12T14:22:19.174Z,102718.72
2018-12-12T14:24:48.102Z,102717.40
2018-12-12T14:27:17.023Z,102726.59
2018-12-12T14:29:45.919Z,102730.08
2018-12-12T14:32:14.828Z,102732.52
2018-12-12T14:34:43.922Z,102730.88
2018-12-12T14:37:12.870Z,102724.16
2018-12-12T14:39:41.736Z,102727.92
2018-12-12T14:42:10.770Z,102727.12
2018-12-12T14:44:39.991Z,102721.45
2018-12-12T14:47:09.116Z,102733.05
2018-12-12T14:49:38.020Z,102730.39
2018-12-12T14:52:07.061Z,102731.75
2018-12-12T14:54:35.965Z,102728.50
2018-12-12T14:57:05.233Z,102732.53
2018-12-12T14:59:34.204Z,102737.12
2018-12-12T15:02:03.292Z,102733.88
2018-12-12T15:04:35.889Z,102729.82
2018-12-12T15:07:03.119Z,102728.21
2018-12-12T15:09:32.092Z,102729.56
2018-12-12T15:12:01.322Z,102732.25
2018-12-12T15:14:30.391Z,102734.94
2018-12-12T15:16:59.407Z,102737.41
2018-12-12T15:19:28.319Z,102736.59
2018-12-12T15:21:57.310Z,102725.54
2018-12-12T15:24:26.339Z,102725.00
2018-12-12T15:26:55.225Z,102734.45
2018-12-12T15:29:24.161Z,102727.16
2018-12-12T15:31:53.162Z,102729.02
2018-12-12T15:34:22.573Z,102726.02
2018-12-12T15:36:51.572Z,102728.42
2018-12-12T15:39:20.892Z,102726.00
2018-12-12T15:41:50.666Z,102724.38
2018-12-12T15:44:19.562Z,102725.99
2018-12-12T15:46:48.443Z,102728.17
2018-12-12T15:49:17.582Z,102724.63
2018-12-12T15:51:46.573Z,102728.70
2018-12-12T15:54:15.681Z,102726.22
2018-12-12T15:56:44.893Z,102724.08
2018-12-12T15:59:13.967Z,102730.02
2018-12-12T16:01:42.943Z,102728.70
2018-12-12T16:04:11.899Z,102729.52
2018-12-12T16:06:40.818Z,102731.39
2018-12-12T16:09:09.853Z,102725.16
2018-12-12T16:11:38.850Z,102723.80
2018-12-12T16:14:07.843Z,102726.50
2018-12-12T16:16:36.847Z,102724.05
2018-12-12T16:19:05.715Z,102722.41
2018-12-12T16:21:34.921Z,102719.71
2018-12-12T16:24:04.170Z,102726.77
2018-12-12T16:26:33.183Z,102725.39
2018-12-12T16:29:02.091Z,102723.22
2018-12-12T16:31:31.409Z,102724.55
2018-12-12T16:34:00.334Z,102721.57
2018-12-12T16:36:29.247Z,102726.69
2018-12-12T16:38:58.455Z,102725.34
2018-12-12T16:41:27.753Z,102725.88
2018-12-12T16:43:56.666Z,102729.08
2018-12-12T16:46:26.335Z,102721.31
2018-12-12T16:48:55.342Z,102725.57
2018-12-12T16:51:24.343Z,102724.20
2018-12-12T16:53:53.556Z,102727.19
2018-12-12T16:56:22.525Z,102723.90
2018-12-12T16:58:51.497Z,102725.52
2018-12-12T17:01:20.476Z,102722.55
2018-12-12T17:03:49.471Z,102724.96
2018-12-12T17:06:18.431Z,102728.44
2018-12-12T17:08:49.054Z,102731.14
2018-12-12T17:11:18.012Z,102736.78
2018-12-12T17:13:47.006Z,102735.67
2018-12-12T17:16:16.312Z,102733.51
2018-12-12T17:18:45.249Z,102736.20
2018-12-12T17:21:14.275Z,102738.61
2018-12-12T17:23:43.165Z,102741.52
2018-12-12T17:26:12.117Z,102740.91
2018-12-12T17:28:41.144Z,102735.59
2018-12-12T17:31:10.150Z,102746.02
2018-12-12T17:33:39.424Z,102740.06
2018-12-12T17:36:08.471Z,102734.38
2018-12-12T17:38:37.390Z,102739.41
2018-12-12T17:41:06.429Z,102736.16
2018-12-12T17:43:35.327Z,102742.11
2018-12-12T17:46:04.770Z,102736.62
2018-12-12T17:48:33.635Z,102740.41
2018-12-12T17:51:02.595Z,102739.94
2018-12-12T17:53:31.821Z,102741.72
2018-12-12T17:56:00.793Z,102745.72
2018-12-12T17:58:30.210Z,102745.53
2018-12-12T18:00:59.180Z,102745.50
2018-12-12T18:03:28.323Z,102753.33
2018-12-12T18:05:57.621Z,102750.78
2018-12-12T18:08:26.489Z,102751.57
2018-12-12T18:10:55.452Z,102749.95
2018-12-12T18:13:24.359Z,102746.22
2018-12-12T18:15:53.351Z,102745.36
2018-12-12T18:18:22.277Z,102751.80
2018-12-12T18:20:51.234Z,102753.93
2018-12-12T18:23:20.123Z,102747.71
2018-12-12T18:25:49.436Z,102746.37
2018-12-12T18:28:18.437Z,102746.70
2018-12-12T18:30:47.546Z,102750.36
2018-12-12T18:33:16.405Z,102747.97
2018-12-12T18:35:45.304Z,102750.84
2018-12-12T18:38:14.279Z,102747.08
2018-12-12T18:40:43.157Z,102748.27
2018-12-12T18:43:12.579Z,102759.62
2018-12-12T18:45:41.473Z,102756.80
2018-12-12T18:48:11.323Z,102755.31
2018-12-12T18:50:40.763Z,102757.48
2018-12-12T18:53:09.709Z,102769.31
2018-12-12T18:55:38.802Z,102757.93
2018-12-12T18:58:07.715Z,102756.02
2018-12-12T19:00:36.830Z,102751.83
2018-12-12T19:03:06.264Z,102756.09
2018-12-12T19:05:35.158Z,102753.48
2018-12-12T19:08:04.768Z,102753.25
2018-12-12T19:10:33.696Z,102753.48
2018-12-12T19:13:02.671Z,102754.38
2018-12-12T19:15:33.772Z,102754.59
2018-12-12T19:18:02.793Z,102753.18
2018-12-12T19:20:31.963Z,102748.69
2018-12-12T19:23:00.960Z,102752.05
2018-12-12T19:25:29.841Z,102755.35
2018-12-12T19:27:59.181Z,102744.61
2018-12-12T19:30:28.930Z,102758.12
2018-12-12T19:32:59.594Z,102755.95
2018-12-12T19:35:34.801Z,102755.02
2018-12-12T19:38:01.478Z,102758.84
2018-12-12T19:40:30.467Z,102754.22
2018-12-12T19:42:59.761Z,102757.52
2018-12-12T19:45:28.706Z,102752.47
2018-12-12T19:47:57.670Z,102749.99
2018-12-12T19:50:26.808Z,102748.61
2018-12-12T19:52:55.807Z,102754.27
2018-12-12T19:55:24.977Z,102755.87
2018-12-12T19:57:54.046Z,102750.78
2018-12-12T20:00:23.374Z,102754.79
2018-12-12T20:02:52.347Z,102761.00
2018-12-12T20:05:21.330Z,102758.91
2018-12-12T20:07:50.509Z,102758.84
2018-12-12T20:10:19.806Z,102759.28
2018-12-12T20:12:49.092Z,102755.50
2018-12-12T20:15:23.775Z,102749.09
2018-12-12T20:17:52.870Z,102745.84
2018-12-12T20:20:22.075Z,102749.66
2018-12-12T20:22:51.080Z,102744.83
2018-12-12T20:25:20.270Z,102746.81
2018-12-12T20:27:49.232Z,102738.42
2018-12-12T20:30:18.226Z,102742.20
2018-12-12T20:32:47.150Z,102738.13
2018-12-12T20:35:16.379Z,102745.46
2018-12-12T20:37:45.310Z,102744.64
2018-12-12T20:40:14.938Z,102744.48
2018-12-12T20:42:44.233Z,102747.70
2018-12-12T20:45:13.391Z,102751.78
2018-12-12T20:47:42.665Z,102750.70
2018-12-12T20:50:11.766Z,102753.09
2018-12-12T20:52:40.717Z,102751.25
2018-12-12T20:55:10.207Z,102744.78
2018-12-12T20:57:39.232Z,102745.66
2018-12-12T21:00:08.472Z,102755.75
2018-12-12T21:02:37.458Z,102752.96
2018-12-12T21:05:06.820Z,102755.42
2018-12-12T21:07:35.835Z,102750.62
2018-12-12T21:10:05.816Z,102752.00
2018-12-12T21:12:34.779Z,102744.54
2018-12-12T21:15:06.935Z,102750.70
2018-12-12T21:17:36.324Z,102740.44
2018-12-12T21:20:08.498Z,102735.81
2018-12-12T21:22:37.388Z,102741.20
2018-12-12T21:25:07.227Z,102739.64
2018-12-12T21:27:36.133Z,102741.77
2018-12-12T21:30:05.527Z,102747.71
2018-12-12T21:32:34.504Z,102741.27
2018-12-12T21:35:03.758Z,102739.09
2018-12-12T21:37:32.746Z,102739.94
2018-12-12T21:40:04.777Z,102743.66
2018-12-12T21:42:33.748Z,102745.31
2018-12-12T21:45:04.466Z,102740.67
2018-12-12T21:47:33.443Z,102729.06
2018-12-12T21:50:02.469Z,102737.45
2018-12-12T21:52:31.433Z,102737.45
2018-12-12T21:55:00.376Z,102739.91
2018-12-12T21:57:29.317Z,102743.16
2018-12-12T21:59:58.289Z,102742.34
2018-12-12T22:02:27.350Z,102742.64
2018-12-12T22:04:56.295Z,102736.44
2018-12-12T22:07:25.419Z,102744.54
2018-12-12T22:09:54.446Z,102742.64
2018-12-12T22:12:23.343Z,102741.55
2018-12-12T22:14:52.306Z,102740.52
2018-12-12T22:17:21.318Z,102746.68
2018-12-12T22:19:50.223Z,102749.65
2018-12-12T22:22:19.199Z,102744.25
2018-12-12T22:24:48.139Z,102740.99
2018-12-12T22:27:17.029Z,102738.91
2018-12-12T22:29:46.316Z,102737.22
2018-12-12T22:32:15.337Z,102734.78
2018-12-12T22:34:44.365Z,102735.92
2018-12-12T22:37:13.255Z,102728.62
2018-12-12T22:39:42.311Z,102732.40
2018-12-12T22:42:11.643Z,102731.29
2018-12-12T22:44:40.587Z,102735.86
2018-12-12T22:47:09.547Z,102738.56
2018-12-12T22:49:38.493Z,102734.02
2018-12-12T22:52:07.366Z,102740.78
2018-12-12T22:54:36.294Z,102738.59
2018-12-12T22:57:05.321Z,102737.53
2018-12-12T22:59:34.407Z,102733.50
2018-12-12T23:02:03.485Z,102738.66
2018-12-12T23:04:32.581Z,102733.00
2018-12-12T23:07:01.511Z,102736.78
2018-12-12T23:09:30.831Z,102732.16
2018-12-12T23:11:59.796Z,102735.14
2018-12-12T23:14:28.705Z,102730.56
2018-12-12T23:16:57.851Z,102733.86
2018-12-12T23:19:26.714Z,102732.44
2018-12-12T23:21:55.687Z,102728.66
2018-12-12T23:24:25.161Z,102731.07
2018-12-12T23:26:54.279Z,102730.54
2018-12-12T23:29:23.162Z,102726.50
2018-12-12T23:31:52.122Z,102727.02
2018-12-12T23:34:21.136Z,102723.58
2018-12-12T23:36:50.201Z,102719.24
2018-12-12T23:39:19.186Z,102726.25
2018-12-12T23:41:48.148Z,102728.69
2018-12-12T23:44:17.000Z,102731.39
2018-12-12T23:46:45.898Z,102722.72
2018-12-12T23:49:14.959Z,102726.47
2018-12-12T23:51:44.425Z,102723.46
2018-12-12T23:54:13.319Z,102723.73
2018-12-12T23:56:42.264Z,102725.89
2018-12-12T23:59:11.155Z,102728.83
